Time;durP1;ratioP1;P1;durP2;ratioP2;P2;SDS_P1;SDS_P2;PMS_P1;PMS_P2;Temp;Humidity;BMP_temperature;BMP_pressure;BME280_temperature;BME280_humidity;BME280_pressure;Samples;Min_cycle;Max_cycle;Signal;HPM_P1;HPM_P2
2021/08/06 00:00:21;;;;;;;2.10;1.00;;;15.60;99.90;;;;;;4995375;28;20817;-75
2021/08/06 00:02:47;;;;;;;1.87;1.10;;;15.50;99.90;;;;;;4995327;28;20322;-72
2021/08/06 00:05:12;;;;;;;1.23;1.13;;;15.60;99.90;;;;;;4994358;28;20180;-73
2021/08/06 00:07:38;;;;;;;1.63;1.20;;;15.60;99.90;;;;;;4995218;28;20179;-72
2021/08/06 00:10:05;;;;;;;1.57;1.47;;;15.50;99.90;;;;;;4995384;28;20678;-73
2021/08/06 00:12:31;;;;;;;1.00;1.00;;;15.50;99.90;;;;;;4995124;28;20231;-72
2021/08/06 00:14:56;;;;;;;4.93;1.30;;;15.50;99.90;;;;;;4995093;28;20266;-72
2021/08/06 00:17:22;;;;;;;2.37;0.97;;;15.60;99.90;;;;;;4995068;28;20195;-74
2021/08/06 00:19:48;;;;;;;1.70;1.07;;;15.60;99.90;;;;;;4994880;28;20226;-72
2021/08/06 00:22:13;;;;;;;2.47;1.20;;;15.60;99.90;;;;;;4995091;28;20180;-72
2021/08/06 00:24:39;;;;;;;4.00;1.33;;;15.50;99.90;;;;;;4994897;28;20229;-71
2021/08/06 00:27:05;;;;;;;1.40;0.90;;;15.60;99.90;;;;;;4995124;28;20214;-73
2021/08/06 00:29:30;;;;;;;1.07;1.00;;;15.50;99.90;;;;;;4994781;28;20286;-73
2021/08/06 00:31:56;;;;;;;1.83;1.10;;;15.40;99.90;;;;;;4993513;28;20263;-73
2021/08/06 00:34:21;;;;;;;3.63;1.00;;;15.50;99.90;;;;;;4994843;28;20176;-72
2021/08/06 00:36:47;;;;;;;1.93;1.07;;;15.40;99.90;;;;;;4994722;28;20184;-71
2021/08/06 00:39:13;;;;;;;2.03;1.10;;;15.40;99.90;;;;;;4993350;28;20255;-73
2021/08/06 00:41:38;;;;;;;0.97;0.93;;;15.40;99.90;;;;;;4994594;28;20188;-74
2021/08/06 00:44:04;;;;;;;0.80;0.80;;;15.30;99.90;;;;;;4993310;28;20335;-72
2021/08/06 00:46:30;;;;;;;1.17;1.07;;;15.30;99.90;;;;;;4994654;28;20580;-72
2021/08/06 00:48:57;;;;;;;1.50;1.10;;;15.30;99.90;;;;;;4994423;28;20202;-71
2021/08/06 00:51:23;;;;;;;1.00;1.00;;;15.30;99.90;;;;;;4994494;28;20177;-73
2021/08/06 00:53:49;;;;;;;1.30;1.10;;;15.30;99.90;;;;;;4994357;28;20219;-72
2021/08/06 00:56:16;;;;;;;2.40;1.27;;;15.30;99.90;;;;;;4994356;28;20184;-73
2021/08/06 00:58:41;;;;;;;1.47;1.17;;;15.30;99.90;;;;;;4994237;28;20179;-73
2021/08/06 01:01:07;;;;;;;3.17;1.07;;;15.30;99.90;;;;;;4993541;28;20187;-73
2021/08/06 01:03:47;;;;;;;2.53;1.13;;;15.30;99.90;;;;;;4992891;28;20196;-73
2021/08/06 01:06:29;;;;;;;1.77;1.00;;;15.40;99.90;;;;;;4994444;28;20176;-73
2021/08/06 01:09:00;;;;;;;1.57;1.10;;;15.40;99.90;;;;;;4994061;28;20286;-73
2021/08/06 01:11:29;;;;;;;4.10;1.37;;;15.30;99.90;;;;;;4994163;28;20172;-72
2021/08/06 01:13:56;;;;;;;1.63;1.10;;;15.30;99.90;;;;;;4994060;28;20190;-73
2021/08/06 01:16:28;;;;;;;2.53;1.00;;;15.30;99.90;;;;;;4993956;28;20538;-73
2021/08/06 01:18:59;;;;;;;2.10;1.23;;;15.30;99.90;;;;;;4994024;28;20223;-73
2021/08/06 01:21:29;;;;;;;3.77;1.00;;;15.30;99.90;;;;;;4993926;28;20192;-71
2021/08/06 01:24:00;;;;;;;2.70;1.10;;;15.30;99.90;;;;;;4994260;28;20214;-73
2021/08/06 01:26:27;;;;;;;1.93;0.90;;;15.30;99.90;;;;;;4994099;28;20176;-72
2021/08/06 01:28:53;;;;;;;1.03;1.00;;;15.30;99.90;;;;;;4992489;28;20250;-73
2021/08/06 01:31:28;;;;;;;2.67;1.10;;;15.40;99.90;;;;;;4993378;28;20202;-73
2021/08/06 01:33:54;;;;;;;1.87;1.10;;;15.40;99.90;;;;;;4980599;28;20192;-73
2021/08/06 01:36:20;;;;;;;1.30;1.00;;;15.30;99.90;;;;;;4993908;28;20262;-73
2021/08/06 01:38:45;;;;;;;2.20;1.10;;;15.30;99.90;;;;;;4993111;28;20185;-73
2021/08/06 01:41:35;;;;;;;2.30;0.90;;;15.20;99.90;;;;;;4993494;28;20647;-73
2021/08/06 01:44:25;;;;;;;2.13;0.90;;;15.20;99.90;;;;;;4991300;28;20196;-73
2021/08/06 01:46:57;;;;;;;1.70;0.93;;;15.30;99.90;;;;;;4989666;28;20242;-74
2021/08/06 01:49:30;;;;;;;1.90;1.00;;;15.30;99.90;;;;;;4991062;28;20203;-73
2021/08/06 01:52:06;;;;;;;1.10;0.80;;;15.30;99.90;;;;;;4992245;28;20259;-73
2021/08/06 01:54:34;;;;;;;1.77;1.00;;;15.20;99.90;;;;;;4989590;28;20556;-72
2021/08/06 01:57:02;;;;;;;1.83;0.80;;;15.20;99.90;;;;;;4992314;28;20183;-74
2021/08/06 01:59:29;;;;;;;1.00;0.70;;;15.20;99.90;;;;;;4991245;28;20213;-74
2021/08/06 02:01:56;;;;;;;0.80;0.80;;;15.30;99.90;;;;;;4989482;28;20199;-74
2021/08/06 02:04:23;;;;;;;1.37;1.00;;;15.30;99.90;;;;;;4991040;28;20540;-73
2021/08/06 02:06:49;;;;;;;0.80;0.80;;;15.30;99.90;;;;;;4992322;28;20714;-71
2021/08/06 02:09:17;;;;;;;2.30;0.93;;;15.30;99.90;;;;;;4992635;28;20267;-74
2021/08/06 02:11:43;;;;;;;2.33;0.90;;;15.20;99.90;;;;;;4994885;28;20175;-73
2021/08/06 02:14:15;;;;;;;2.27;1.20;;;15.20;99.90;;;;;;4994771;28;20188;-72
2021/08/06 02:16:44;;;;;;;2.03;0.90;;;15.20;99.90;;;;;;4993483;28;20187;-74
2021/08/06 02:19:13;;;;;;;1.40;1.00;;;15.10;99.90;;;;;;4994488;28;20273;-75
2021/08/06 02:21:40;;;;;;;1.60;0.90;;;15.00;99.90;;;;;;4994758;28;20553;-73
2021/08/06 02:24:10;;;;;;;1.80;0.93;;;15.10;99.90;;;;;;4994588;28;20191;-73
2021/08/06 02:26:38;;;;;;;0.80;0.80;;;15.10;99.90;;;;;;5009553;28;20176;-73
2021/08/06 02:29:14;;;;;;;1.97;1.00;;;15.20;99.90;;;;;;4988864;28;20275;-74
2021/08/06 02:31:42;;;;;;;2.60;0.93;;;15.20;99.90;;;;;;4978085;28;20188;-75
2021/08/06 02:34:09;;;;;;;1.50;1.00;;;15.30;99.90;;;;;;4978663;28;20185;-72
2021/08/06 02:36:35;;;;;;;2.87;1.20;;;15.20;99.90;;;;;;4979453;28;20220;-74
2021/08/06 02:39:04;;;;;;;1.43;1.00;;;15.20;99.90;;;;;;4975153;28;20241;-73
2021/08/06 02:41:30;;;;;;;6.23;0.80;;;15.30;99.90;;;;;;4977332;28;20183;-73
2021/08/06 02:43:56;;;;;;;3.13;1.13;;;15.30;99.90;;;;;;4979049;28;20203;-75
2021/08/06 02:46:21;;;;;;;1.33;1.20;;;15.30;99.90;;;;;;4976480;28;20625;-75
2021/08/06 02:48:47;;;;;;;1.47;1.00;;;15.20;99.90;;;;;;4981825;28;20549;-73
2021/08/06 02:51:13;;;;;;;2.27;1.07;;;15.20;99.90;;;;;;4984116;28;20531;-72
2021/08/06 02:53:38;;;;;;;3.00;1.10;;;15.10;99.90;;;;;;4995687;28;20192;-75
2021/08/06 02:56:05;;;;;;;1.03;0.90;;;15.10;99.90;;;;;;4994611;28;20187;-74
2021/08/06 02:58:30;;;;;;;3.33;1.00;;;15.00;99.90;;;;;;4995826;28;20194;-72
2021/08/06 03:00:56;;;;;;;5.90;1.20;;;14.90;99.90;;;;;;4996429;28;20203;-73
2021/08/06 03:03:22;;;;;;;4.10;1.40;;;15.00;99.90;;;;;;4995512;28;20278;-73
2021/08/06 03:05:47;;;;;;;4.67;1.27;;;15.00;99.90;;;;;;4994804;28;20543;-72
2021/08/06 03:08:13;;;;;;;5.03;1.10;;;15.00;99.90;;;;;;4995405;28;20516;-72
2021/08/06 03:10:39;;;;;;;2.80;1.10;;;15.00;99.90;;;;;;4992619;28;20195;-73
2021/08/06 03:13:04;;;;;;;2.97;1.00;;;15.00;99.90;;;;;;4992534;28;20189;-73
2021/08/06 03:15:30;;;;;;;3.13;1.20;;;15.00;99.90;;;;;;4977345;28;20830;-73
2021/08/06 03:17:56;;;;;;;1.20;1.10;;;15.10;99.90;;;;;;4992307;28;20210;-74
2021/08/06 03:20:22;;;;;;;1.13;1.00;;;15.10;99.90;;;;;;4993860;28;20227;-73
2021/08/06 03:22:50;;;;;;;2.70;1.20;;;15.00;99.90;;;;;;4980441;28;20180;-72
2021/08/06 03:25:16;;;;;;;3.37;1.43;;;15.00;99.90;;;;;;4993012;28;20184;-72
2021/08/06 03:27:42;;;;;;;1.87;1.17;;;15.10;99.90;;;;;;4989020;28;20203;-73
2021/08/06 03:30:11;;;;;;;1.20;1.10;;;15.10;99.90;;;;;;4993684;28;20195;-71
2021/08/06 03:32:36;;;;;;;1.30;1.13;;;15.10;99.90;;;;;;4993821;28;20612;-74
2021/08/06 03:35:03;;;;;;;1.20;1.10;;;15.10;99.90;;;;;;4993483;28;20211;-74
2021/08/06 03:37:29;;;;;;;2.13;1.10;;;15.20;99.90;;;;;;4994716;28;20184;-72
2021/08/06 03:39:55;;;;;;;3.43;1.30;;;15.00;99.90;;;;;;4993837;28;20199;-74
2021/08/06 03:42:20;;;;;;;2.00;1.40;;;15.10;99.90;;;;;;4993777;28;20187;-73
2021/08/06 03:44:46;;;;;;;1.37;1.10;;;14.90;99.90;;;;;;4993480;28;20216;-73
2021/08/06 03:47:12;;;;;;;1.87;1.30;;;15.00;99.90;;;;;;4993065;28;20187;-73
2021/08/06 03:49:38;;;;;;;1.73;1.13;;;15.00;99.90;;;;;;4991629;28;20568;-73
2021/08/06 03:52:04;;;;;;;3.40;1.20;;;15.00;99.90;;;;;;4992898;28;20191;-74
2021/08/06 03:54:29;;;;;;;1.33;1.23;;;15.00;99.90;;;;;;4992976;28;20192;-74
2021/08/06 03:56:55;;;;;;;1.10;1.00;;;15.00;99.90;;;;;;4992968;28;20191;-73
2021/08/06 03:59:21;;;;;;;2.20;1.20;;;15.00;99.90;;;;;;4995096;28;20203;-72
2021/08/06 04:01:46;;;;;;;1.60;1.30;;;15.00;99.90;;;;;;4993436;28;20263;-72
2021/08/06 04:04:12;;;;;;;3.00;1.73;;;14.90;99.90;;;;;;4994494;28;20295;-73
2021/08/06 04:06:39;;;;;;;1.50;1.40;;;14.90;99.90;;;;;;4993444;28;20259;-73
2021/08/06 04:09:04;;;;;;;1.43;1.33;;;14.90;99.90;;;;;;4993820;28;20230;-73
2021/08/06 04:11:30;;;;;;;3.70;1.67;;;14.90;99.90;;;;;;4994127;28;20268;-73
2021/08/06 04:13:56;;;;;;;3.40;1.90;;;14.80;99.90;;;;;;4995266;28;20654;-73
2021/08/06 04:16:22;;;;;;;4.23;1.87;;;14.80;99.90;;;;;;4995204;28;20577;-72
2021/08/06 04:18:48;;;;;;;3.97;1.90;;;14.90;99.90;;;;;;4994959;28;20223;-75
2021/08/06 04:21:13;;;;;;;2.23;1.80;;;14.80;99.90;;;;;;5039250;23;20697;-77
2021/08/06 04:23:39;;;;;;;2.30;1.70;;;14.80;99.90;;;;;;5018568;28;20223;-77
2021/08/06 04:26:05;;;;;;;2.53;2.00;;;14.70;99.90;;;;;;5017035;28;20182;-76
2021/08/06 04:28:30;;;;;;;2.17;1.97;;;14.70;99.90;;;;;;5015394;28;20594;-77
2021/08/06 04:31:00;;;;;;;2.37;2.17;;;14.70;99.90;;;;;;5001764;28;20730;-77
2021/08/06 04:33:26;;;;;;;3.77;2.30;;;14.80;99.90;;;;;;4996141;28;20190;-77
2021/08/06 04:35:52;;;;;;;2.43;2.10;;;14.90;99.90;;;;;;4980644;28;20190;-78
2021/08/06 04:38:18;;;;;;;4.80;2.53;;;15.00;99.90;;;;;;4998008;28;20188;-78
2021/08/06 04:40:43;;;;;;;3.50;2.30;;;15.00;99.90;;;;;;4997556;28;20218;-81
2021/08/06 04:43:09;;;;;;;5.13;2.40;;;15.10;99.90;;;;;;4997745;28;20207;-78
2021/08/06 04:45:34;;;;;;;3.47;2.50;;;15.10;99.90;;;;;;4996807;28;20266;-77
2021/08/06 04:48:03;;;;;;;3.47;2.10;;;15.20;99.90;;;;;;4997287;28;20211;-76
2021/08/06 04:50:29;;;;;;;2.93;2.23;;;15.20;99.90;;;;;;4997209;28;20261;-76
2021/08/06 04:52:57;;;;;;;3.27;2.60;;;15.20;99.90;;;;;;4996211;28;20203;-74
2021/08/06 04:55:23;;;;;;;3.97;2.00;;;15.30;99.90;;;;;;4996862;28;20259;-76
2021/08/06 04:57:58;;;;;;;3.07;2.43;;;15.30;99.90;;;;;;4996586;28;20194;-76
2021/08/06 05:00:23;;;;;;;3.73;2.03;;;15.30;99.90;;;;;;4996745;28;20199;-77
2021/08/06 05:02:49;;;;;;;2.47;2.23;;;15.30;99.90;;;;;;4996576;28;20178;-76
2021/08/06 05:05:15;;;;;;;3.23;2.07;;;15.30;99.90;;;;;;4994176;28;20184;-76
2021/08/06 05:07:47;;;;;;;2.50;2.30;;;15.20;99.90;;;;;;4995397;28;20172;-74
2021/08/06 05:10:13;;;;;;;3.77;3.47;;;15.20;99.90;;;;;;4993864;28;20287;-76
2021/08/06 05:12:38;;;;;;;6.30;3.23;;;15.30;99.90;;;;;;4994995;28;20250;-76
2021/08/06 05:15:04;;;;;;;5.10;3.20;;;15.30;99.90;;;;;;4994962;28;20720;-76
2021/08/06 05:17:30;;;;;;;4.20;3.43;;;15.20;99.90;;;;;;4994815;28;20221;-77
2021/08/06 05:19:55;;;;;;;3.70;3.40;;;15.30;99.90;;;;;;4994399;28;20211;-75
2021/08/06 05:22:21;;;;;;;3.53;2.77;;;15.40;99.90;;;;;;4994472;28;20183;-75
2021/08/06 05:24:47;;;;;;;3.60;2.97;;;15.40;99.90;;;;;;4993120;28;20245;-76
2021/08/06 05:27:12;;;;;;;3.67;3.10;;;15.30;99.90;;;;;;4994489;28;20184;-76
2021/08/06 05:29:38;;;;;;;3.97;3.13;;;15.40;99.90;;;;;;4992952;28;20200;-76
2021/08/06 05:32:04;;;;;;;3.93;3.17;;;15.40;99.90;;;;;;4993111;28;20202;-76
2021/08/06 05:34:30;;;;;;;3.17;2.90;;;15.40;99.90;;;;;;4994338;28;20180;-76
2021/08/06 05:36:56;;;;;;;3.37;3.07;;;15.40;99.90;;;;;;4994196;28;20231;-76
2021/08/06 05:39:21;;;;;;;3.47;3.00;;;15.40;99.90;;;;;;4993782;28;20184;-75
2021/08/06 05:41:47;;;;;;;3.50;3.17;;;15.30;99.90;;;;;;4992840;28;20190;-76
2021/08/06 05:44:12;;;;;;;3.27;2.80;;;15.30;99.90;;;;;;4992984;28;20290;-77
2021/08/06 05:46:38;;;;;;;3.90;3.43;;;15.30;99.90;;;;;;4990632;28;20242;-76
2021/08/06 05:49:04;;;;;;;3.27;3.00;;;15.50;99.90;;;;;;4990367;28;20211;-74
2021/08/06 05:51:29;;;;;;;2.87;2.67;;;15.50;99.90;;;;;;4991849;28;20734;-76
2021/08/06 05:53:55;;;;;;;3.40;3.07;;;15.40;99.90;;;;;;4992631;28;20267;-78
2021/08/06 05:56:21;;;;;;;7.13;4.37;;;15.60;99.90;;;;;;4993714;28;20263;-77
2021/08/06 05:58:46;;;;;;;4.10;3.70;;;15.70;99.90;;;;;;4992613;28;20551;-77
2021/08/06 06:01:12;;;;;;;2.90;2.00;;;15.70;99.90;;;;;;4992703;28;20238;-78
2021/08/06 06:03:37;;;;;;;3.50;2.67;;;15.70;99.90;;;;;;4980892;28;20257;-77
2021/08/06 06:06:03;;;;;;;2.50;2.33;;;15.70;99.90;;;;;;4992734;28;20230;-78
2021/08/06 06:08:29;;;;;;;2.57;2.37;;;15.80;99.90;;;;;;4993314;28;20175;-78
2021/08/06 06:10:55;;;;;;;2.73;2.40;;;15.80;99.90;;;;;;4993327;28;20694;-76
2021/08/06 06:13:20;;;;;;;2.10;1.90;;;15.80;99.90;;;;;;4993190;28;20188;-77
2021/08/06 06:15:46;;;;;;;2.50;2.30;;;15.90;99.90;;;;;;4995379;28;20195;-77
2021/08/06 06:18:11;;;;;;;2.83;2.63;;;15.90;99.90;;;;;;4992512;28;20180;-76
2021/08/06 06:20:37;;;;;;;4.93;2.40;;;15.90;99.90;;;;;;4993737;28;20212;-77
2021/08/06 06:23:04;;;;;;;2.40;2.20;;;15.90;99.90;;;;;;4995263;28;20217;-79
2021/08/06 06:25:29;;;;;;;3.03;2.50;;;15.90;99.90;;;;;;4995735;28;20175;-77
2021/08/06 06:27:57;;;;;;;2.00;1.90;;;15.90;99.90;;;;;;4994846;28;20230;-76
2021/08/06 06:30:26;;;;;;;3.07;1.90;;;15.90;99.90;;;;;;4994710;28;20200;-77
2021/08/06 06:32:53;;;;;;;2.30;2.10;;;16.10;99.90;;;;;;4993510;28;20226;-74
2021/08/06 06:35:19;;;;;;;2.83;2.10;;;16.10;99.90;;;;;;4994146;28;20173;-77
2021/08/06 06:37:44;;;;;;;2.43;2.23;;;16.20;99.90;;;;;;4993455;28;20214;-76
2021/08/06 06:40:11;;;;;;;1.90;1.80;;;16.30;99.90;;;;;;4993960;28;20218;-75
2021/08/06 06:42:37;;;;;;;4.17;2.13;;;16.30;99.90;;;;;;4993809;28;20171;-76
2021/08/06 06:45:03;;;;;;;2.37;1.43;;;16.40;99.90;;;;;;4992156;28;20278;-77
2021/08/06 06:47:37;;;;;;;2.33;2.13;;;16.50;99.90;;;;;;4993646;28;20594;-76
2021/08/06 06:50:05;;;;;;;2.53;1.60;;;16.50;99.90;;;;;;4993960;28;20196;-76
2021/08/06 06:52:31;;;;;;;3.17;2.10;;;16.60;99.90;;;;;;4992472;28;20601;-76
2021/08/06 06:54:56;;;;;;;1.60;1.50;;;16.60;99.90;;;;;;4994922;28;20175;-76
2021/08/06 06:57:22;;;;;;;1.70;1.60;;;16.50;99.90;;;;;;4997266;28;20209;-75
2021/08/06 06:59:48;;;;;;;1.77;1.50;;;16.50;99.90;;;;;;4995776;28;20226;-75
2021/08/06 07:02:13;;;;;;;2.20;1.93;;;16.60;99.90;;;;;;4995808;28;20199;-75
2021/08/06 07:04:39;;;;;;;1.80;1.60;;;16.60;99.90;;;;;;4997547;28;20197;-76
2021/08/06 07:07:04;;;;;;;1.90;1.57;;;16.60;99.90;;;;;;4996756;28;20179;-77
2021/08/06 07:09:30;;;;;;;2.27;1.67;;;16.60;99.90;;;;;;4997844;28;20519;-76
2021/08/06 07:11:56;;;;;;;3.47;1.83;;;16.70;99.90;;;;;;4997929;28;20688;-76
2021/08/06 07:14:21;;;;;;;1.77;1.50;;;16.70;99.90;;;;;;4997638;28;20175;-76
2021/08/06 07:16:47;;;;;;;2.93;1.47;;;16.80;99.90;;;;;;4989089;28;20215;-77
2021/08/06 07:19:12;;;;;;;1.40;1.30;;;16.80;99.90;;;;;;4997164;28;20269;-75
2021/08/06 07:21:43;;;;;;;4.53;1.60;;;16.80;99.90;;;;;;4993594;28;20244;-77
2021/08/06 07:24:09;;;;;;;1.73;1.37;;;16.80;99.90;;;;;;4997599;28;20555;-75
2021/08/06 07:26:35;;;;;;;4.33;1.93;;;17.00;99.90;;;;;;4995712;28;20176;-75
2021/08/06 07:29:00;;;;;;;2.20;1.73;;;17.10;99.90;;;;;;4995426;28;20198;-75
2021/08/06 07:31:26;;;;;;;2.13;1.60;;;17.20;99.90;;;;;;4996581;28;20737;-75
2021/08/06 07:33:52;;;;;;;1.97;1.40;;;17.30;99.90;;;;;;4996235;28;20184;-74
2021/08/06 07:36:17;;;;;;;3.97;1.43;;;17.30;99.90;;;;;;4996481;28;20194;-77
2021/08/06 07:38:43;;;;;;;2.27;1.67;;;17.30;99.90;;;;;;4995321;28;20694;-76
2021/08/06 07:41:09;;;;;;;3.60;1.53;;;17.30;99.90;;;;;;4998952;28;20202;-76
2021/08/06 07:43:35;;;;;;;3.57;1.40;;;17.20;99.90;;;;;;4997031;28;20295;-76
2021/08/06 07:46:01;;;;;;;3.50;1.87;;;17.20;99.90;;;;;;4996584;28;20268;-76
2021/08/06 07:48:26;;;;;;;2.03;1.40;;;17.20;99.90;;;;;;5000974;28;20182;-77
2021/08/06 07:50:52;;;;;;;4.60;1.33;;;17.20;99.90;;;;;;4999508;28;20205;-78
2021/08/06 07:53:18;;;;;;;1.40;1.20;;;17.20;99.90;;;;;;4997133;28;20175;-76
2021/08/06 07:55:43;;;;;;;1.67;1.27;;;17.20;99.90;;;;;;4999469;28;20265;-74
2021/08/06 07:58:09;;;;;;;2.00;1.30;;;17.20;99.90;;;;;;4998122;28;20323;-78
2021/08/06 08:00:35;;;;;;;4.13;1.70;;;17.20;99.90;;;;;;4996474;28;20197;-77
2021/08/06 08:03:01;;;;;;;2.53;1.40;;;17.20;99.90;;;;;;4992233;28;20194;-77
2021/08/06 08:05:26;;;;;;;2.40;1.50;;;17.20;99.90;;;;;;4998027;28;20167;-75
2021/08/06 08:07:52;;;;;;;3.07;1.60;;;17.30;99.90;;;;;;4997364;28;20184;-76
2021/08/06 08:10:19;;;;;;;2.80;1.63;;;17.30;99.90;;;;;;4998703;28;20692;-77
2021/08/06 08:12:45;;;;;;;4.07;1.50;;;17.30;99.90;;;;;;4998288;28;20203;-77
2021/08/06 08:15:11;;;;;;;2.67;1.40;;;17.40;99.90;;;;;;4995981;28;20202;-77
2021/08/06 08:17:37;;;;;;;2.83;1.50;;;17.50;99.90;;;;;;4996283;28;20184;-75
2021/08/06 08:20:03;;;;;;;2.23;1.40;;;17.50;99.90;;;;;;4997025;28;20222;-76
2021/08/06 08:22:29;;;;;;;2.07;1.60;;;17.40;99.90;;;;;;4997913;28;20538;-75
2021/08/06 08:24:54;;;;;;;2.30;1.17;;;17.40;99.90;;;;;;4996267;28;20194;-76
2021/08/06 08:27:20;;;;;;;2.40;1.30;;;17.50;99.90;;;;;;4996513;28;20175;-76
2021/08/06 08:29:48;;;;;;;1.40;1.30;;;17.50;99.90;;;;;;4996104;28;20211;-77
2021/08/06 08:32:17;;;;;;;3.37;1.10;;;17.50;99.90;;;;;;4996715;28;20180;-77
2021/08/06 08:34:44;;;;;;;3.23;1.50;;;17.50;99.90;;;;;;4997036;28;20179;-78
2021/08/06 08:37:10;;;;;;;2.40;1.70;;;17.60;99.90;;;;;;4997271;28;20182;-75
2021/08/06 08:39:36;;;;;;;3.30;1.43;;;17.60;99.90;;;;;;4995832;28;20217;-77
2021/08/06 08:42:03;;;;;;;3.10;1.63;;;17.70;99.90;;;;;;4997470;28;20183;-78
2021/08/06 08:44:34;;;;;;;1.60;1.10;;;17.70;99.90;;;;;;4994577;28;20227;-76
2021/08/06 08:47:01;;;;;;;2.00;1.50;;;17.70;99.90;;;;;;4996277;28;20205;-78
2021/08/06 08:49:30;;;;;;;2.47;1.30;;;17.80;99.90;;;;;;4996119;28;20193;-78
2021/08/06 08:51:57;;;;;;;2.70;1.50;;;18.00;99.90;;;;;;4995470;28;20178;-76
2021/08/06 08:54:23;;;;;;;4.70;1.50;;;18.20;99.90;;;;;;4997016;28;20180;-76
2021/08/06 08:56:50;;;;;;;3.10;1.37;;;18.30;99.90;;;;;;4994710;28;20183;-77
2021/08/06 08:59:15;;;;;;;3.10;1.33;;;18.20;99.90;;;;;;4996370;28;20179;-76
2021/08/06 09:01:41;;;;;;;2.97;1.40;;;18.30;99.90;;;;;;4994321;28;20186;-76
2021/08/06 09:04:24;;;;;;;2.30;1.07;;;18.30;99.90;;;;;;4995383;28;20204;-77
2021/08/06 09:06:51;;;;;;;4.47;1.47;;;18.30;99.90;;;;;;4998161;28;20173;-76
2021/08/06 09:09:22;;;;;;;1.97;1.10;;;18.40;99.90;;;;;;4998164;28;20178;-77
2021/08/06 09:11:50;;;;;;;2.57;1.33;;;18.40;99.90;;;;;;4998442;28;20186;-77
2021/08/06 09:14:30;;;;;;;2.90;1.50;;;18.40;99.90;;;;;;4998197;28;20226;-77
2021/08/06 09:17:09;;;;;;;3.20;1.37;;;18.50;99.90;;;;;;4995946;28;20176;-76
2021/08/06 09:19:39;;;;;;;2.90;1.73;;;18.60;99.90;;;;;;4997348;28;20221;-77
2021/08/06 09:22:23;;;;;;;4.03;1.47;;;18.50;99.90;;;;;;4994824;28;20182;-77
2021/08/06 09:25:13;;;;;;;1.70;1.20;;;18.60;99.90;;;;;;4995135;28;20206;-78
2021/08/06 09:28:02;;;;;;;2.30;1.53;;;18.50;99.90;;;;;;4994369;28;20168;-77
2021/08/06 09:30:39;;;;;;;1.93;1.30;;;18.60;99.90;;;;;;4985420;28;20632;-76
2021/08/06 09:33:08;;;;;;;1.87;1.30;;;18.60;99.90;;;;;;4992152;28;20677;-77
2021/08/06 09:35:35;;;;;;;2.77;1.17;;;18.50;99.90;;;;;;4991392;28;20755;-76
2021/08/06 09:38:03;;;;;;;2.03;1.57;;;18.50;99.90;;;;;;4983389;28;20206;-79
2021/08/06 09:40:31;;;;;;;2.47;1.50;;;18.50;99.90;;;;;;4991678;28;20293;-77
2021/08/06 09:43:00;;;;;;;3.77;1.43;;;18.60;99.90;;;;;;4985191;28;20712;-77
2021/08/06 09:45:38;;;;;;;2.03;1.20;;;18.70;99.90;;;;;;4986953;28;20176;-75
2021/08/06 09:48:04;;;;;;;1.97;1.50;;;18.90;99.90;;;;;;4994335;28;20248;-78
2021/08/06 09:50:37;;;;;;;2.83;1.47;;;19.10;99.90;;;;;;4986398;28;20203;-77
2021/08/06 09:53:04;;;;;;;3.90;1.20;;;19.30;99.90;;;;;;4979134;28;20218;-79
2021/08/06 09:55:39;;;;;;;1.83;1.10;;;19.40;99.90;;;;;;4984120;28;20176;-78
2021/08/06 09:58:11;;;;;;;3.30;1.20;;;19.50;99.90;;;;;;4990173;28;20187;-78
2021/08/06 10:00:46;;;;;;;3.10;1.43;;;19.60;99.90;;;;;;4993738;28;20586;-78
2021/08/06 10:03:29;;;;;;;1.87;1.23;;;19.50;99.90;;;;;;4983905;28;20203;-79
2021/08/06 10:06:20;;;;;;;4.30;1.73;;;19.60;99.90;;;;;;4985436;28;20587;-77
2021/08/06 10:08:46;;;;;;;2.87;1.30;;;19.70;99.90;;;;;;4983640;28;20179;-78
2021/08/06 10:11:12;;;;;;;2.60;1.43;;;19.90;99.90;;;;;;4991634;28;20203;-77
2021/08/06 10:13:39;;;;;;;4.80;1.70;;;20.10;99.90;;;;;;4983196;28;20184;-77
2021/08/06 10:16:06;;;;;;;2.50;1.20;;;20.20;99.90;;;;;;4978914;28;20204;-77
2021/08/06 10:18:32;;;;;;;2.40;1.17;;;20.30;99.90;;;;;;4976887;28;20765;-78
2021/08/06 10:20:58;;;;;;;3.07;0.90;;;20.30;99.90;;;;;;5003321;28;20239;-78
2021/08/06 10:23:24;;;;;;;2.33;1.23;;;20.30;99.90;;;;;;4986821;28;20251;-76
2021/08/06 10:25:50;;;;;;;4.27;1.40;;;20.30;99.90;;;;;;4981978;28;20184;-77
2021/08/06 10:28:16;;;;;;;2.60;1.30;;;20.40;99.90;;;;;;4989725;28;20244;-78
2021/08/06 10:30:42;;;;;;;6.00;0.97;;;20.50;99.90;;;;;;4991543;28;20541;-76
2021/08/06 10:33:26;;;;;;;3.77;1.10;;;20.50;99.90;;;;;;4983953;28;20191;-79
2021/08/06 10:36:05;;;;;;;2.43;1.10;;;20.50;99.90;;;;;;4985369;28;20180;-78
2021/08/06 10:38:35;;;;;;;3.20;1.47;;;20.70;99.90;;;;;;4994876;28;20251;-79
2021/08/06 10:41:16;;;;;;;3.93;1.33;;;20.80;99.90;;;;;;4994636;28;20202;-78
2021/08/06 10:43:48;;;;;;;3.50;1.40;;;20.90;99.90;;;;;;4990234;28;20211;-78
2021/08/06 10:46:14;;;;;;;3.03;1.00;;;20.80;99.90;;;;;;4988667;28;20172;-78
2021/08/06 10:48:43;;;;;;;1.80;1.17;;;20.90;99.90;;;;;;4983827;28;20172;-77
2021/08/06 10:51:12;;;;;;;3.20;0.90;;;20.90;99.90;;;;;;4990970;28;20195;-77
2021/08/06 10:53:49;;;;;;;2.57;1.10;;;20.90;99.90;;;;;;4990378;28;20203;-78
2021/08/06 10:56:18;;;;;;;3.17;1.33;;;20.90;99.90;;;;;;4986452;28;20760;-76
2021/08/06 10:58:50;;;;;;;2.40;1.30;;;20.80;99.90;;;;;;4980848;28;20177;-77
2021/08/06 11:01:31;;;;;;;2.80;1.37;;;20.80;99.90;;;;;;4992791;28;20206;-78
2021/08/06 11:04:13;;;;;;;3.57;1.37;;;20.80;99.90;;;;;;4986566;28;20199;-78
2021/08/06 11:06:47;;;;;;;5.00;1.53;;;20.90;99.90;;;;;;4990750;28;20765;-78
2021/08/06 11:09:25;;;;;;;1.43;1.00;;;20.90;99.90;;;;;;4992190;28;20179;-77
2021/08/06 11:11:54;;;;;;;1.90;1.00;;;20.90;99.90;;;;;;4993636;28;20580;-77
2021/08/06 11:14:28;;;;;;;3.47;1.63;;;20.90;99.90;;;;;;4994735;28;20181;-78
2021/08/06 11:17:09;;;;;;;2.40;1.10;;;21.10;99.90;;;;;;4992212;28;20207;-77
2021/08/06 11:19:42;;;;;;;1.30;0.73;;;21.00;99.90;;;;;;4991908;28;20246;-77
2021/08/06 11:22:20;;;;;;;3.33;1.07;;;21.00;99.90;;;;;;4993208;28;20198;-78
2021/08/06 11:25:05;;;;;;;2.10;0.90;;;21.10;99.90;;;;;;4990752;28;20199;-78
2021/08/06 11:27:40;;;;;;;1.63;1.00;;;21.10;99.90;;;;;;4994948;28;20175;-77
2021/08/06 11:30:38;;;;;;;2.20;1.27;;;21.00;99.90;;;;;;4989774;28;20230;-78
2021/08/06 11:33:06;;;;;;;1.73;1.33;;;21.10;99.90;;;;;;4976831;28;20223;-79
2021/08/06 11:35:34;;;;;;;2.80;1.40;;;21.20;99.90;;;;;;5001813;28;20302;-78
2021/08/06 11:38:06;;;;;;;2.50;1.20;;;21.10;99.90;;;;;;4998052;28;20182;-78
2021/08/06 11:40:35;;;;;;;2.70;0.90;;;21.30;99.90;;;;;;4994194;28;20192;-77
2021/08/06 11:43:14;;;;;;;2.17;0.87;;;21.40;99.90;;;;;;4982656;28;20176;-76
2021/08/06 11:45:42;;;;;;;3.93;1.00;;;21.50;99.90;;;;;;4979815;28;20346;-77
2021/08/06 11:48:08;;;;;;;2.67;1.00;;;21.60;99.90;;;;;;4995997;28;20185;-78
2021/08/06 11:50:42;;;;;;;2.27;0.83;;;21.60;99.90;;;;;;4988666;28;20734;-77
2021/08/06 11:53:12;;;;;;;2.70;1.00;;;21.70;99.90;;;;;;4981763;28;20183;-77
2021/08/06 11:55:38;;;;;;;3.27;1.10;;;21.70;99.90;;;;;;4990469;28;20186;-76
2021/08/06 11:58:03;;;;;;;1.90;1.00;;;21.60;99.90;;;;;;4997866;28;20175;-78
2021/08/06 12:00:34;;;;;;;2.10;1.20;;;21.50;99.90;;;;;;5000032;28;20196;-78
2021/08/06 12:03:05;;;;;;;2.07;1.13;;;21.50;99.90;;;;;;5001869;28;20682;-78
2021/08/06 12:05:33;;;;;;;3.27;1.30;;;21.60;99.90;;;;;;5000510;28;20254;-77
2021/08/06 12:08:11;;;;;;;2.63;1.07;;;21.80;99.90;;;;;;5000587;28;20172;-76
2021/08/06 12:10:36;;;;;;;4.70;1.37;;;21.90;99.90;;;;;;5001005;28;20196;-78
2021/08/06 12:13:10;;;;;;;1.27;0.63;;;22.10;99.90;;;;;;4999306;28;20180;-75
2021/08/06 12:15:36;;;;;;;3.00;1.00;;;21.80;99.90;;;;;;4998321;28;20180;-76
2021/08/06 12:18:13;;;;;;;2.47;0.93;;;22.40;99.90;;;;;;4998591;28;20183;-76
2021/08/06 12:20:47;;;;;;;1.23;1.00;;;22.60;99.90;;;;;;4998234;28;20213;-76
2021/08/06 12:23:16;;;;;;;2.70;1.10;;;22.60;99.90;;;;;;4995621;28;20258;-75
2021/08/06 12:26:02;;;;;;;2.80;1.10;;;22.60;99.90;;;;;;4995627;28;20175;-76
2021/08/06 12:28:28;;;;;;;1.57;0.80;;;22.60;99.90;;;;;;4996937;28;20611;-76
2021/08/06 12:31:18;;;;;;;1.27;0.80;;;22.60;99.90;;;;;;4995229;28;20233;-77
2021/08/06 12:33:46;;;;;;;2.30;1.10;;;22.60;99.90;;;;;;4996109;28;20176;-77
2021/08/06 12:36:19;;;;;;;2.60;1.00;;;22.90;99.90;;;;;;4997487;28;20190;-78
2021/08/06 12:38:49;;;;;;;1.10;0.83;;;23.00;99.90;;;;;;4980856;28;20187;-79
2021/08/06 12:41:30;;;;;;;2.53;1.07;;;22.90;99.90;;;;;;4997595;28;20184;-76
2021/08/06 12:44:18;;;;;;;2.33;1.10;;;22.80;99.90;;;;;;4996372;28;20211;-78
2021/08/06 12:46:55;;;;;;;1.97;0.90;;;22.80;99.90;;;;;;4995217;28;20251;-77
2021/08/06 12:49:27;;;;;;;1.60;0.80;;;22.90;99.90;;;;;;4995406;28;20180;-76
2021/08/06 12:52:29;;;;;;;2.80;0.90;;;22.80;99.90;;;;;;4997736;28;20255;-76
2021/08/06 12:54:54;;;;;;;1.97;0.70;;;22.90;99.90;;;;;;4976602;28;20196;-78